Urb Cerro los Pobres, Puerto Rico
Current Conditions -  °F | °C
As of 1:50 PM on Monday 22 Dec 2014 (Local Time) from TJBQ Reporting Station
Scattered Clouds Scattered Clouds  
Wind Chill: 82°   Ceiling: Unl
Heat Index: 87°   Visibility: 10mi
Dew Point: 72°   Wind: 14mph
Humidity: 70%   Direction: 70°ENE
Pressure: 30.01"   Gusts: NA
Location:  18.3427°N, 67.2504°W
Report Text: TJBQ 221750Z 07012KT 10SM SCT021 28/22 A3001 RMK RWY08 ATIS X
Loading
Personal Weather Stations






























Interactive Weather Map New forecast layout! Learn more

10-Day Weather Forecast

Advertisements
Track Severe Weather on mobile